Time;durP1;ratioP1;P1;durP2;ratioP2;P2;SDS_P1;SDS_P2;PMS_P1;PMS_P2;Temp;Humidity;BMP_temperature;BMP_pressure;BME280_temperature;BME280_humidity;BME280_pressure;Samples;Min_cycle;Max_cycle;Signal;HPM_P1;HPM_P2
2022/08/15 00:01:58;;;;;;;5.22;2.33;;;21.50;99.90;;;20.71;100.00;96626.53;4942711;28;20056;-65
2022/08/15 00:04:25;;;;;;;6.72;2.60;;;21.50;99.90;;;20.77;100.00;96620.66;4946002;28;20083;-64
2022/08/15 00:07:01;;;;;;;6.55;2.40;;;21.50;99.90;;;20.72;100.00;96615.84;4941826;28;20048;-66
2022/08/15 00:09:28;;;;;;;6.68;2.05;;;21.50;99.90;;;20.78;100.00;96609.16;4946174;28;20126;-65
2022/08/15 00:12:17;;;;;;;9.07;2.13;;;21.50;99.90;;;20.73;100.00;96595.56;4942471;28;20055;-65
2022/08/15 00:15:09;;;;;;;8.68;2.20;;;21.40;99.90;;;20.72;100.00;96589.47;4941295;28;20062;-65
2022/08/15 00:17:38;;;;;;;4.82;1.80;;;21.50;99.90;;;20.79;100.00;96592.31;4940214;28;20058;-64
2022/08/15 00:20:17;;;;;;;5.82;1.70;;;21.40;99.90;;;20.69;100.00;96589.78;4962129;28;20106;-65
2022/08/15 00:22:50;;;;;;;4.22;1.80;;;21.40;99.90;;;20.70;100.00;96588.78;4943672;28;20075;-66
2022/08/15 00:25:19;;;;;;;5.53;2.05;;;21.40;99.90;;;20.70;100.00;96583.50;4942103;28;20125;-66
2022/08/15 00:27:53;;;;;;;7.75;2.03;;;21.40;99.90;;;20.76;100.00;96576.81;4941901;28;20070;-65
2022/08/15 00:30:21;;;;;;;7.80;1.85;;;21.40;99.90;;;20.61;100.00;96592.34;4942765;28;20051;-65
2022/08/15 00:32:57;;;;;;;6.10;2.10;;;21.40;99.90;;;20.79;100.00;96585.22;4939829;28;20082;-64
2022/08/15 00:35:48;;;;;;;5.55;1.80;;;21.40;99.90;;;20.60;100.00;96594.16;4941718;28;20055;-64
2022/08/15 00:38:35;;;;;;;6.00;1.77;;;21.40;99.90;;;20.66;100.00;96597.97;4956628;28;20063;-65
2022/08/15 00:44:24;;;;;;;5.50;1.70;;;21.30;99.90;;;20.55;100.00;96606.94;4938711;28;20047;-65
2022/08/15 00:47:20;;;;;;;5.05;1.58;;;21.30;99.90;;;20.67;100.00;96599.66;4944145;28;20511;-65
2022/08/15 00:49:48;;;;;;;6.25;2.00;;;21.30;99.90;;;20.51;100.00;96604.75;4957317;28;20051;-65
2022/08/15 00:52:31;;;;;;;7.18;1.60;;;21.30;99.90;;;20.59;100.00;96607.47;4941933;28;20059;-64
2022/08/15 00:55:18;;;;;;;4.65;1.70;;;21.30;99.90;;;20.46;100.00;96603.41;4954338;28;20063;-65
2022/08/15 00:57:52;;;;;;;6.45;1.70;;;21.20;99.90;;;20.45;100.00;96609.63;4944232;28;20054;-65
2022/08/15 01:00:38;;;;;;;5.38;1.77;;;21.20;99.90;;;20.57;100.00;96610.28;4943468;28;20062;-65
2022/08/15 01:03:34;;;;;;;5.88;1.55;;;21.20;99.90;;;20.60;100.00;96622.34;4943195;28;20051;-65
2022/08/15 01:06:25;;;;;;;4.82;1.75;;;21.20;99.90;;;20.42;100.00;96624.94;4944931;28;20500;-64
2022/08/15 01:08:59;;;;;;;6.57;2.13;;;21.20;99.90;;;20.40;100.00;96635.63;4944485;28;20454;-65
2022/08/15 01:11:44;;;;;;;5.95;1.90;;;21.10;99.90;;;20.43;100.00;96631.84;4959858;28;20220;-65
2022/08/15 01:14:12;;;;;;;4.75;1.92;;;21.10;99.90;;;20.37;100.00;96635.94;4942254;28;20055;-65
2022/08/15 01:17:00;;;;;;;7.70;1.83;;;21.10;99.90;;;20.38;100.00;96636.75;4942979;28;20135;-64
2022/08/15 01:19:35;;;;;;;7.10;2.38;;;21.10;99.90;;;20.47;100.00;96625.31;4958169;28;20059;-65
2022/08/15 01:22:08;;;;;;;6.38;2.05;;;21.10;99.90;;;20.31;100.00;96633.88;4956233;28;20058;-66
2022/08/15 01:24:47;;;;;;;4.85;1.83;;;21.10;99.90;;;20.38;100.00;96632.28;4956629;28;20047;-66
2022/08/15 01:27:59;;;;;;;13.60;2.40;;;21.10;99.90;;;20.19;100.00;96640.34;4941582;28;20065;-64
2022/08/15 01:30:39;;;;;;;3.08;1.60;;;21.00;99.90;;;20.22;100.00;96654.03;4947486;28;20089;-64
2022/08/15 01:33:29;;;;;;;4.90;2.00;;;21.00;99.90;;;20.02;100.00;96652.50;4956679;28;20051;-64
2022/08/15 01:35:56;;;;;;;6.70;2.10;;;20.90;99.90;;;20.04;100.00;96650.53;4939734;28;20050;-64
2022/08/15 01:38:36;;;;;;;7.57;2.50;;;20.80;99.90;;;19.95;100.00;96662.78;4943681;28;20110;-65
2022/08/15 01:41:39;;;;;;;5.82;1.88;;;20.80;99.90;;;19.84;100.00;96668.22;4944118;28;20051;-65
2022/08/15 01:44:30;;;;;;;5.85;2.08;;;20.70;99.90;;;19.89;100.00;96660.75;4955506;28;20051;-65
2022/08/15 01:47:06;;;;;;;5.25;2.00;;;20.60;99.90;;;19.75;100.00;96675.22;4938441;28;20402;-63
2022/08/15 01:50:25;;;;;;;6.43;2.30;;;20.60;99.90;;;19.91;100.00;96664.06;4940129;28;20043;-64
2022/08/15 01:53:31;;;;;;;11.10;2.55;;;20.60;99.90;;;19.83;100.00;96666.59;4925829;28;20047;-65
2022/08/15 01:56:21;;;;;;;6.28;2.50;;;20.60;99.90;;;19.61;100.00;96665.97;4953047;28;20051;-64
2022/08/15 01:59:06;;;;;;;7.63;2.50;;;20.50;99.90;;;19.66;100.00;96660.25;4956161;28;20063;-64
2022/08/15 02:02:02;;;;;;;4.60;2.20;;;20.50;99.90;;;19.79;100.00;96662.59;4959080;28;20058;-65
2022/08/15 02:04:53;;;;;;;5.18;2.40;;;20.50;99.90;;;19.71;100.00;96665.13;4953247;28;20058;-65
2022/08/15 02:07:25;;;;;;;5.78;2.28;;;20.40;99.90;;;19.47;100.00;96676.09;4937538;29;20138;-64
2022/08/15 02:09:58;;;;;;;6.68;2.70;;;20.40;99.90;;;19.42;100.00;96681.78;4941597;28;20083;-65
2022/08/15 02:12:45;;;;;;;4.38;2.38;;;20.30;99.90;;;19.42;100.00;96682.63;4954404;28;20085;-65
2022/08/15 02:15:33;;;;;;;7.40;2.30;;;20.30;99.90;;;19.36;100.00;96698.16;4940622;28;20052;-65
2022/08/15 02:18:01;;;;;;;8.75;3.00;;;20.30;99.90;;;19.33;100.00;96698.44;4940810;28;20063;-65
2022/08/15 02:20:31;;;;;;;4.63;2.28;;;20.20;99.90;;;19.35;100.00;96688.59;4942648;28;20142;-65
2022/08/15 02:23:06;;;;;;;6.78;2.88;;;;;;;19.21;100.00;96703.84;4940245;28;20130;-64
2022/08/15 02:25:43;;;;;;;9.68;2.30;;;20.10;99.90;;;19.17;100.00;96707.72;4942901;28;20448;-64
2022/08/15 02:28:10;;;;;;;6.22;2.42;;;20.10;99.90;;;19.07;100.00;96714.81;4954936;28;20059;-65
2022/08/15 02:30:57;;;;;;;6.72;2.38;;;20.00;99.90;;;18.99;100.00;96722.56;4939613;28;20227;-64
2022/08/15 02:33:27;;;;;;;5.45;2.20;;;19.90;99.90;;;19.03;100.00;96721.31;4943240;28;20666;-65
2022/08/15 02:35:54;;;;;;;14.15;2.83;;;19.90;99.90;;;18.99;100.00;96719.94;4942416;28;20056;-64
2022/08/15 02:38:21;;;;;;;3.90;2.33;;;19.90;99.90;;;18.95;100.00;96729.06;4941006;28;20268;-65
2022/08/15 02:40:50;;;;;;;8.95;2.60;;;19.80;99.90;;;18.72;100.00;96757.38;4958648;28;20436;-65
2022/08/15 02:43:19;;;;;;;5.65;2.63;;;19.70;99.90;;;18.70;100.00;96748.78;4945453;28;20584;-65
2022/08/15 02:45:50;;;;;;;5.00;2.33;;;19.70;99.90;;;18.59;100.00;96779.50;4938336;28;20051;-65
2022/08/15 02:48:39;;;;;;;4.82;3.10;;;19.60;99.90;;;18.17;100.00;96818.19;4936525;28;20051;-65
2022/08/15 02:51:22;;;;;;;8.63;4.10;;;19.30;99.90;;;17.84;100.00;96851.59;4938178;29;20138;-65
2022/08/15 02:53:52;;;;;;;7.32;3.80;;;18.80;99.90;;;17.53;100.00;96911.81;4953790;28;20505;-65
2022/08/15 02:56:24;;;;;;;7.75;3.90;;;18.50;99.90;;;17.50;100.00;96955.88;4954987;28;20597;-65
2022/08/15 02:58:57;;;;;;;5.65;3.28;;;18.30;99.90;;;17.37;100.00;97005.84;4937706;28;20070;-65
2022/08/15 03:01:26;;;;;;;8.52;3.75;;;18.10;99.90;;;17.22;100.00;97049.00;4940689;28;20043;-65
2022/08/15 03:04:13;;;;;;;10.07;4.63;;;18.00;99.90;;;17.14;100.00;97083.72;4937480;28;20043;-65
2022/08/15 03:06:56;;;;;;;8.70;4.15;;;17.90;99.90;;;17.07;100.00;97127.91;4953739;28;20050;-65
2022/08/15 03:09:25;;;;;;;7.95;4.57;;;17.90;99.90;;;17.01;100.00;97138.03;4954829;28;20075;-65
2022/08/15 03:12:03;;;;;;;9.50;4.40;;;17.80;99.90;;;17.06;100.00;97154.25;4938713;28;20142;-66
2022/08/15 03:14:56;;;;;;;10.20;4.30;;;17.70;99.90;;;16.96;100.00;97172.47;4944065;28;20099;-66
2022/08/15 03:17:28;;;;;;;9.80;5.00;;;17.70;99.90;;;16.87;100.00;97187.09;4943242;28;20090;-65
2022/08/15 03:19:55;;;;;;;8.07;4.97;;;17.60;99.90;;;17.17;100.00;97217.22;4942825;28;20182;-64
2022/08/15 03:22:24;;;;;;;12.05;6.20;;;17.60;99.90;;;17.04;100.00;97230.44;4943483;29;20489;-65
2022/08/15 03:25:14;;;;;;;10.52;5.53;;;17.50;99.90;;;17.13;100.00;97240.22;4943693;28;20043;-66
2022/08/15 03:27:41;;;;;;;8.00;5.47;;;17.50;99.90;;;17.04;100.00;97246.16;4961184;28;20139;-66
2022/08/15 03:30:13;;;;;;;7.82;5.25;;;17.50;99.90;;;17.08;100.00;97238.88;4958408;28;20497;-65
2022/08/15 03:32:55;;;;;;;11.85;6.45;;;17.40;99.90;;;16.99;100.00;97271.03;4943395;28;20808;-66
2022/08/15 03:35:27;;;;;;;10.95;6.18;;;17.40;99.90;;;16.99;100.00;97277.13;4958785;28;20528;-65
2022/08/15 03:37:59;;;;;;;10.82;6.20;;;17.40;99.90;;;17.09;100.00;97301.72;4944233;29;20073;-65
2022/08/15 03:40:33;;;;;;;11.43;5.78;;;17.40;99.90;;;16.97;100.00;97314.88;4941975;28;20130;-65
2022/08/15 03:43:15;;;;;;;11.82;6.32;;;17.30;99.90;;;16.89;100.00;97323.31;4956630;28;20421;-65
2022/08/15 03:45:47;;;;;;;10.32;5.68;;;17.30;99.90;;;16.75;100.00;97341.78;4942412;28;20102;-66
2022/08/15 03:48:21;;;;;;;8.25;5.10;;;17.30;99.90;;;16.85;100.00;97363.78;4942083;28;20151;-65
2022/08/15 03:50:52;;;;;;;9.00;5.00;;;17.30;99.90;;;16.92;100.00;97381.63;4940445;28;20051;-66
2022/08/15 03:53:29;;;;;;;8.57;5.70;;;17.30;99.90;;;17.09;100.00;97393.50;4941738;28;20051;-65
2022/08/15 03:55:58;;;;;;;9.10;5.47;;;17.40;99.90;;;16.86;100.00;97403.00;4941406;28;20048;-65
2022/08/15 03:58:29;;;;;;;7.32;5.18;;;17.30;99.90;;;16.75;100.00;97400.28;4945014;29;20069;-65
2022/08/15 04:01:10;;;;;;;11.32;6.43;;;17.30;99.90;;;16.72;100.00;97411.81;4955666;28;20087;-65
2022/08/15 04:03:40;;;;;;;12.05;6.20;;;17.20;99.90;;;16.86;100.00;97418.75;4956901;28;20111;-65
2022/08/15 04:06:10;;;;;;;9.82;6.32;;;17.20;99.90;;;16.65;100.00;97422.81;4940909;28;20134;-66
2022/08/15 04:08:46;;;;;;;9.38;6.55;;;17.20;99.90;;;16.58;100.00;97416.34;4956766;28;20072;-65
2022/08/15 04:11:33;;;;;;;12.45;6.38;;;17.30;99.90;;;16.76;100.00;97411.59;4942429;28;20051;-65
2022/08/15 04:14:06;;;;;;;10.50;6.80;;;17.30;99.90;;;16.67;100.00;97424.41;4959445;28;20533;-65
2022/08/15 04:16:57;;;;;;;9.05;6.05;;;17.40;99.90;;;16.82;100.00;97427.75;4956620;28;20055;-66
2022/08/15 04:19:32;;;;;;;11.38;7.00;;;17.30;99.90;;;16.88;100.00;97429.97;4958266;28;20057;-66
2022/08/15 04:22:15;;;;;;;10.20;7.00;;;17.40;99.90;;;16.79;100.00;97425.38;4939685;29;20452;-65
2022/08/15 04:25:15;;;;;;;8.88;6.47;;;17.40;99.90;;;16.78;100.00;97425.44;4941148;28;20054;-65
2022/08/15 04:27:47;;;;;;;14.32;8.20;;;17.40;99.90;;;16.63;100.00;97430.81;4940487;28;20043;-66
2022/08/15 04:30:22;;;;;;;9.70;6.88;;;17.40;99.90;;;16.66;100.00;97422.72;4938504;28;20047;-65
2022/08/15 04:32:56;;;;;;;10.88;8.25;;;17.40;99.90;;;16.66;100.00;97424.50;4942747;29;20473;-66
2022/08/15 04:35:34;;;;;;;10.52;7.90;;;17.40;99.90;;;16.82;100.00;97425.13;4941517;28;20130;-65
2022/08/15 04:38:04;;;;;;;12.00;8.20;;;17.30;99.90;;;16.63;100.00;97427.34;4942641;28;20047;-65
2022/08/15 04:40:33;;;;;;;10.27;7.18;;;17.30;99.90;;;16.66;100.00;97420.09;4945960;28;20131;-65
2022/08/15 04:43:22;;;;;;;9.68;7.75;;;17.40;99.90;;;16.69;100.00;97421.66;4953791;28;21462;-65
2022/08/15 04:45:52;;;;;;;10.20;7.50;;;17.40;99.90;;;16.69;100.00;97419.03;4958347;28;20074;-65
2022/08/15 04:48:20;;;;;;;13.30;7.97;;;17.40;99.90;;;16.64;100.00;97432.47;4937648;28;20473;-65
2022/08/15 04:50:51;;;;;;;10.65;8.45;;;17.30;99.90;;;16.49;100.00;97423.06;4939615;28;20181;-65
2022/08/15 04:53:22;;;;;;;9.20;7.72;;;17.30;99.90;;;16.72;100.00;97408.38;4960980;28;20054;-65
2022/08/15 04:55:59;;;;;;;11.35;8.88;;;17.30;99.90;;;16.70;100.00;97397.97;4943993;28;20469;-65
2022/08/15 04:58:30;;;;;;;13.73;8.80;;;17.20;99.90;;;16.51;100.00;97393.19;4957597;28;20517;-65
2022/08/15 05:01:11;;;;;;;10.63;7.85;;;17.20;99.90;;;16.46;100.00;97350.75;4952642;28;20051;-65
2022/08/15 05:03:39;;;;;;;11.85;8.77;;;17.20;99.90;;;16.62;100.00;97341.81;4954694;28;20047;-65
2022/08/15 05:06:09;;;;;;;14.82;8.70;;;17.10;99.90;;;16.46;100.00;97326.31;4935988;28;20146;-66
2022/08/15 05:08:56;;;;;;;10.70;8.57;;;17.20;99.90;;;16.40;100.00;97298.81;4943814;28;20497;-65
2022/08/15 05:11:23;;;;;;;13.65;8.15;;;17.10;99.90;;;16.50;100.00;97302.44;4942632;28;20170;-66
2022/08/15 05:13:54;;;;;;;10.07;7.80;;;17.20;99.90;;;16.60;100.00;97307.84;4940298;28;20665;-65
2022/08/15 05:16:22;;;;;;;10.15;6.95;;;17.20;99.90;;;16.93;100.00;97320.34;4939062;28;20121;-66
2022/08/15 05:19:01;;;;;;;8.23;6.35;;;17.30;99.90;;;16.89;100.00;97315.44;4942564;29;20107;-65
2022/08/15 05:21:29;;;;;;;11.55;7.47;;;17.30;99.90;;;16.67;100.00;97309.09;4939416;28;20599;-65
2022/08/15 05:24:09;;;;;;;11.32;6.55;;;17.30;99.90;;;16.82;100.00;97316.84;4939915;28;20055;-66
2022/08/15 05:26:38;;;;;;;10.18;5.60;;;17.30;99.90;;;16.73;100.00;97310.44;4943378;28;20055;-65
2022/08/15 05:29:27;;;;;;;8.60;6.95;;;17.20;99.90;;;16.87;100.00;97306.84;4941433;28;20052;-65
2022/08/15 05:31:54;;;;;;;7.55;5.70;;;17.20;99.90;;;17.00;100.00;97299.78;4939500;28;20130;-65
2022/08/15 05:34:22;;;;;;;8.82;5.82;;;17.20;99.90;;;17.00;100.00;97301.56;4939134;28;20043;-66
2022/08/15 05:37:09;;;;;;;9.48;5.38;;;17.30;99.90;;;16.92;100.00;97291.63;4941053;28;20058;-65
2022/08/15 05:39:38;;;;;;;7.93;5.80;;;17.40;99.90;;;16.70;100.00;97289.69;4943197;28;20058;-65
2022/08/15 05:42:55;;;;;;;8.63;5.82;;;17.30;99.90;;;16.72;100.00;97288.63;4954828;28;20054;-65
2022/08/15 05:45:37;;;;;;;8.23;5.53;;;17.40;99.90;;;16.86;100.00;97287.66;4954630;28;20043;-65
2022/08/15 05:48:20;;;;;;;9.52;5.43;;;17.40;99.90;;;17.07;100.00;97284.44;4953728;28;20078;-65
2022/08/15 05:51:18;;;;;;;7.70;5.05;;;17.50;99.90;;;16.96;100.00;97279.13;4954427;28;20044;-65
2022/08/15 05:54:17;;;;;;;7.68;5.70;;;17.60;99.90;;;16.66;100.00;97281.22;4956012;28;20568;-65
2022/08/15 05:57:18;;;;;;;10.05;5.20;;;17.60;99.90;;;16.70;100.00;97290.53;4953324;28;20576;-66
2022/08/15 05:59:52;;;;;;;7.47;5.47;;;17.50;99.90;;;16.70;100.00;97284.47;4937783;28;20482;-66
2022/08/15 06:02:37;;;;;;;10.63;5.70;;;17.40;99.90;;;16.63;100.00;97278.81;4951850;28;20210;-65
2022/08/15 06:05:32;;;;;;;9.38;6.25;;;17.50;99.90;;;16.59;100.00;97287.84;4951456;28;20054;-65
2022/08/15 06:08:11;;;;;;;8.48;6.05;;;17.50;99.90;;;16.70;100.00;97301.00;4938492;28;20047;-65
2022/08/15 06:11:13;;;;;;;8.52;6.78;;;17.50;99.90;;;16.99;100.00;97302.50;4937833;28;20139;-65
2022/08/15 06:13:57;;;;;;;11.65;7.20;;;17.60;99.90;;;16.94;100.00;97302.81;4958149;28;20059;-65
2022/08/15 06:16:42;;;;;;;9.45;6.03;;;17.70;99.90;;;17.04;100.00;97292.53;4955352;28;20089;-65
2022/08/15 06:19:27;;;;;;;9.82;6.40;;;17.70;99.90;;;16.98;100.00;97283.31;4939327;28;20436;-65
2022/08/15 06:22:53;;;;;;;7.95;6.60;;;17.80;99.90;;;16.96;100.00;97282.59;4939250;28;20051;-65
2022/08/15 06:25:34;;;;;;;7.53;5.97;;;17.90;99.90;;;17.18;100.00;97286.25;4941086;28;20130;-65
2022/08/15 06:28:21;;;;;;;9.65;6.57;;;18.00;99.90;;;17.49;100.00;97285.66;4955670;28;20130;-65
2022/08/15 06:31:30;;;;;;;9.05;6.90;;;18.10;99.90;;;17.47;100.00;97265.69;4941149;28;20055;-65
2022/08/15 06:34:27;;;;;;;8.82;5.55;;;18.30;99.90;;;17.50;100.00;97262.88;4956486;28;20131;-65
2022/08/15 06:37:57;;;;;;;7.88;5.22;;;18.30;99.90;;;17.58;100.00;97259.66;4938132;28;20069;-65
2022/08/15 06:41:12;;;;;;;9.55;6.13;;;18.40;99.90;;;17.41;100.00;97247.81;4941338;28;20457;-65
2022/08/15 06:43:39;;;;;;;7.28;5.57;;;18.40;99.90;;;17.35;100.00;97233.34;4950457;28;20047;-65
2022/08/15 06:46:09;;;;;;;8.13;5.72;;;18.50;99.90;;;17.33;100.00;97236.13;4938597;28;20138;-65
2022/08/15 06:48:59;;;;;;;7.40;5.00;;;18.40;99.90;;;17.43;100.00;97233.63;4943223;28;20469;-65
2022/08/15 06:51:34;;;;;;;9.85;5.03;;;18.40;99.90;;;17.60;100.00;97242.00;4950034;28;20047;-64
2022/08/15 06:54:25;;;;;;;7.25;4.70;;;18.40;99.90;;;17.45;100.00;97239.59;4940009;28;20123;-66
2022/08/15 06:57:22;;;;;;;8.35;4.43;;;18.40;99.90;;;17.70;100.00;97237.72;4940646;28;20051;-65
2022/08/15 06:59:56;;;;;;;4.82;3.55;;;18.30;99.90;;;17.79;100.00;97239.66;4939283;28;20417;-67
2022/08/15 07:02:56;;;;;;;7.50;4.63;;;18.40;99.90;;;17.59;100.00;97232.47;4936487;28;20209;-65
2022/08/15 07:05:51;;;;;;;6.13;4.40;;;18.40;99.90;;;17.38;100.00;97230.53;4950939;28;20055;-66
2022/08/15 07:08:44;;;;;;;6.82;4.07;;;18.40;99.90;;;17.82;100.00;97228.09;4932673;28;20486;-66
2022/08/15 07:11:42;;;;;;;7.70;4.87;;;18.40;99.90;;;17.86;100.00;97216.38;4938139;29;20053;-65
2022/08/15 07:15:05;;;;;;;8.13;5.63;;;18.60;99.90;;;17.75;100.00;97222.44;4948695;28;20043;-66
2022/08/15 07:17:42;;;;;;;6.60;4.60;;;18.70;99.90;;;18.15;100.00;97220.22;4938648;28;20059;-66
2022/08/15 07:20:11;;;;;;;6.00;3.88;;;18.80;99.90;;;18.22;100.00;97209.19;4950593;28;20060;-66
2022/08/15 07:22:58;;;;;;;10.45;8.50;;;18.90;99.90;;;18.06;100.00;97197.28;4935732;28;20374;-66
2022/08/15 07:25:29;;;;;;;13.38;11.13;;;19.10;99.90;;;18.32;100.00;97197.84;4938412;28;20514;-66
2022/08/15 07:28:02;;;;;;;6.75;4.75;;;19.20;99.90;;;18.41;100.00;97190.19;4940706;28;20082;-66
2022/08/15 07:31:08;;;;;;;11.32;7.75;;;19.30;99.90;;;18.11;100.00;97183.78;4951884;28;20091;-65
2022/08/15 07:33:51;;;;;;;6.93;5.03;;;19.30;99.90;;;18.17;100.00;97186.75;4940916;28;20133;-66
2022/08/15 07:36:33;;;;;;;7.53;5.13;;;19.20;99.90;;;18.39;100.00;97178.00;4937314;28;20047;-66
2022/08/15 07:39:43;;;;;;;7.25;4.68;;;19.30;99.90;;;18.86;100.00;97169.00;4939648;28;20504;-66
2022/08/15 07:42:20;;;;;;;7.03;5.38;;;19.30;99.90;;;18.29;100.00;97160.47;4936655;28;20057;-64
2022/08/15 07:45:37;;;;;;;6.45;5.47;;;19.40;99.90;;;18.02;100.00;97158.25;4941527;28;20050;-66
2022/08/15 07:48:27;;;;;;;7.88;5.50;;;19.30;99.90;;;18.09;100.00;97168.16;4951770;28;20044;-66
2022/08/15 07:51:45;;;;;;;9.15;6.43;;;19.30;99.90;;;18.31;100.00;97180.38;4935692;28;20141;-65
2022/08/15 07:54:29;;;;;;;5.57;4.80;;;19.30;99.90;;;18.87;100.00;97182.03;4915593;28;20482;-65
2022/08/15 07:57:24;;;;;;;;;;;19.30;99.90;;;18.91;100.00;97172.94;4937983;29;20051;-65
2022/08/15 08:00:26;;;;;;;9.95;5.68;;;19.50;99.90;;;18.77;100.00;97166.19;4938872;28;19945;-66
2022/08/15 08:03:29;;;;;;;7.90;6.32;;;19.60;99.90;;;18.48;100.00;97152.78;4941148;28;20070;-65
2022/08/15 08:06:15;;;;;;;8.65;7.72;;;19.50;99.90;;;18.57;100.00;97153.81;4956076;28;20082;-64
2022/08/15 08:09:30;;;;;;;7.53;6.13;;;19.40;99.90;;;18.76;100.00;97159.22;4951588;28;20043;-64
2022/08/15 08:12:21;;;;;;;8.98;5.82;;;19.50;99.90;;;18.92;100.00;97153.56;4955925;28;20055;-64
2022/08/15 08:15:50;;;;;;;9.40;6.68;;;19.60;99.90;;;18.53;100.00;97152.41;4938547;28;20047;-64
2022/08/15 08:18:43;;;;;;;7.43;5.40;;;19.60;99.90;;;18.90;100.00;97160.72;4951809;28;20048;-64
2022/08/15 08:21:18;;;;;;;6.82;5.13;;;19.60;99.90;;;18.86;100.00;97156.72;4952606;28;20048;-64
2022/08/15 08:24:07;;;;;;;8.27;6.57;;;19.70;99.90;;;18.60;100.00;97166.69;4937979;28;20111;-64
2022/08/15 08:26:52;;;;;;;7.28;5.95;;;19.70;99.90;;;18.79;100.00;97163.41;4951664;28;20066;-64
2022/08/15 08:29:30;;;;;;;9.43;5.93;;;19.70;99.90;;;18.64;100.00;97160.22;4954384;28;20047;-64
2022/08/15 08:32:06;;;;;;;8.50;5.82;;;19.70;99.90;;;19.05;100.00;97160.44;4936883;28;20428;-64
2022/08/15 08:35:26;;;;;;;6.60;4.70;;;19.70;99.90;;;18.87;100.00;97147.84;4935699;28;20122;-64
2022/08/15 08:38:08;;;;;;;8.48;5.65;;;19.80;99.90;;;19.23;100.00;97148.38;4956433;28;20106;-64
2022/08/15 08:41:25;;;;;;;8.10;4.80;;;19.90;99.90;;;19.05;100.00;97136.75;4938889;28;20059;-64
2022/08/15 08:44:15;;;;;;;7.10;5.10;;;20.10;99.90;;;19.21;100.00;97139.75;4940546;28;20513;-64
2022/08/15 08:47:12;;;;;;;6.90;5.70;;;20.00;99.90;;;18.92;100.00;97144.84;4954535;28;20087;-64
2022/08/15 08:50:08;;;;;;;10.55;5.43;;;20.10;99.90;;;18.71;100.00;97150.88;4936424;28;20153;-64
2022/08/15 08:53:19;;;;;;;6.32;4.40;;;20.10;99.90;;;18.71;100.00;97168.44;4936591;28;20055;-64
2022/08/15 08:56:16;;;;;;;6.63;4.60;;;20.00;99.90;;;18.53;100.00;97187.38;4940055;28;20062;-64
2022/08/15 08:59:16;;;;;;;7.57;4.93;;;19.90;99.90;;;18.64;100.00;97211.97;4951111;28;20184;-64
2022/08/15 09:01:47;;;;;;;7.32;5.13;;;19.80;99.90;;;18.81;100.00;97207.03;4938641;28;20059;-64
2022/08/15 09:04:27;;;;;;;7.07;4.65;;;19.90;99.90;;;19.14;100.00;97218.38;4937534;28;20059;-64
2022/08/15 09:06:56;;;;;;;5.95;4.28;;;20.00;99.90;;;18.76;100.00;97210.97;4951382;28;20075;-64
2022/08/15 09:09:32;;;;;;;8.40;4.65;;;20.00;99.90;;;18.52;100.00;97206.75;4939963;28;20082;-64
2022/08/15 09:15:06;;;;;;;5.75;3.50;;;20.20;99.90;;;18.92;100.00;97198.25;4950058;28;20063;-64
2022/08/15 09:17:49;;;;;;;4.80;3.22;;;20.20;99.90;;;19.09;100.00;97185.50;4949825;28;20106;-64
2022/08/15 09:20:33;;;;;;;5.57;3.38;;;20.40;99.90;;;19.17;100.00;97168.13;4948909;28;20067;-64
2022/08/15 09:23:06;;;;;;;4.80;3.17;;;20.40;99.90;;;19.21;100.00;97171.34;4940102;28;20534;-64
2022/08/15 09:25:46;;;;;;;5.75;3.17;;;20.50;99.90;;;19.08;100.00;97162.81;4941013;28;20047;-64
2022/08/15 09:28:37;;;;;;;9.00;2.70;;;20.40;99.90;;;19.04;100.00;97171.91;4950896;28;20058;-64
2022/08/15 09:31:25;;;;;;;4.43;2.45;;;20.40;99.90;;;19.03;100.00;97160.56;4950549;28;20047;-65
2022/08/15 09:34:37;;;;;;;4.25;2.80;;;20.40;99.90;;;19.34;100.00;97161.44;4950357;28;20057;-64
2022/08/15 09:37:48;;;;;;;4.30;2.42;;;20.40;99.90;;;19.70;100.00;97151.38;4938307;29;20169;-64
2022/08/15 09:40:52;;;;;;;5.20;2.80;;;20.60;99.90;;;20.09;100.00;97138.31;4928815;28;20190;-64
2022/08/15 09:44:03;;;;;;;5.45;2.45;;;20.90;99.90;;;20.68;100.00;97126.06;4937334;28;20058;-64
2022/08/15 09:47:47;;;;;;;5.40;2.35;;;21.30;99.90;;;20.61;100.00;97104.69;4951839;28;20102;-64
2022/08/15 09:50:40;;;;;;;;;;;21.70;99.90;;;20.82;100.00;97085.22;4917426;29;20054;-65
2022/08/15 09:53:33;;;;;;;4.40;2.30;;;22.00;99.90;;;21.49;100.00;97057.84;4948704;28;20406;-64
2022/08/15 09:56:22;;;;;;;5.05;2.20;;;22.30;99.90;;;21.39;100.00;97037.69;4946097;28;20058;-64
2022/08/15 09:59:22;;;;;;;5.32;2.53;;;22.60;99.90;;;21.13;100.00;97027.81;4938217;28;20377;-65
2022/08/15 10:02:00;;;;;;;3.72;2.05;;;22.60;99.90;;;21.25;100.00;97026.63;4937067;28;20052;-65
2022/08/15 10:04:55;;;;;;;6.10;2.30;;;22.90;99.90;;;22.13;100.00;97010.28;4937032;29;20230;-64
2022/08/15 10:07:46;;;;;;;4.40;2.40;;;23.00;99.90;;;21.23;100.00;96999.59;4951155;28;20047;-65
2022/08/15 10:10:24;;;;;;;5.63;2.83;;;22.90;99.90;;;20.92;100.00;96988.44;4935955;28;20106;-64
2022/08/15 10:13:07;;;;;;;8.80;5.20;;;22.80;99.90;;;20.96;100.00;97013.56;4956466;28;20559;-65
2022/08/15 10:15:55;;;;;;;4.78;2.75;;;22.60;99.90;;;20.39;100.00;97031.97;4937856;28;20082;-65
2022/08/15 10:18:23;;;;;;;3.97;2.40;;;22.30;99.90;;;20.55;100.00;97028.78;4951510;28;20646;-64
2022/08/15 10:21:17;;;;;;;5.18;3.08;;;22.00;99.90;;;20.52;100.00;97021.13;4935776;28;20714;-64
2022/08/15 10:23:53;;;;;;;4.40;2.92;;;21.90;99.90;;;20.70;100.00;97031.81;4937328;28;20135;-65
2022/08/15 10:26:32;;;;;;;5.10;2.97;;;21.80;99.90;;;21.17;100.00;97026.53;4953520;28;20055;-65
2022/08/15 10:29:27;;;;;;;9.07;3.03;;;21.80;99.90;;;20.91;100.00;97028.16;4939801;28;20047;-64
2022/08/15 10:31:58;;;;;;;4.65;2.83;;;22.00;99.90;;;21.27;100.00;97024.69;4952212;28;20478;-64
2022/08/15 10:35:01;;;;;;;5.95;2.92;;;22.30;99.90;;;23.02;100.00;96997.94;4950314;28;20055;-64
2022/08/15 10:37:37;;;;;;;4.20;2.20;;;23.20;99.90;;;23.76;100.00;96941.56;4951566;28;20051;-65
2022/08/15 10:41:03;;;;;;;4.60;2.00;;;23.90;99.90;;;24.65;100.00;96882.53;4956170;28;20138;-65
2022/08/15 10:43:54;;;;;;;6.60;1.83;;;24.70;99.90;;;24.32;100.00;96861.38;4937632;28;20077;-65
2022/08/15 10:46:50;;;;;;;4.43;1.83;;;25.00;99.90;;;25.39;100.00;96846.69;4938702;28;20114;-65
2022/08/15 10:49:45;;;;;;;3.45;1.60;;;25.20;99.90;;;23.29;100.00;96833.56;4937120;28;20138;-65
2022/08/15 10:52:49;;;;;;;5.95;1.88;;;25.10;99.90;;;22.84;100.00;96861.19;4940368;28;20066;-65
2022/08/15 10:55:24;;;;;;;4.68;2.13;;;24.50;99.90;;;23.31;100.00;96876.59;4937476;28;20504;-65
2022/08/15 10:58:22;;;;;;;4.38;1.98;;;24.40;99.90;;;23.45;100.00;96875.13;4937285;28;20069;-65
2022/08/15 11:01:07;;;;;;;3.65;1.73;;;24.50;99.90;;;23.78;100.00;96868.03;4951035;28;20059;-65
2022/08/15 11:03:51;;;;;;;5.53;1.90;;;24.70;99.90;;;22.94;100.00;96861.91;4953071;28;20062;-65
2022/08/15 11:06:48;;;;;;;4.35;1.73;;;24.70;99.90;;;22.50;100.00;96877.06;4944396;28;20051;-64
2022/08/15 11:09:23;;;;;;;7.20;2.33;;;24.40;99.90;;;23.27;100.00;96883.19;4940287;28;20055;-64
2022/08/15 11:12:01;;;;;;;5.53;2.40;;;24.50;99.90;;;23.77;100.00;96852.31;4952641;28;20066;-64
2022/08/15 11:14:43;;;;;;;4.07;2.10;;;25.00;99.90;;;23.91;100.00;96817.19;4951172;28;20059;-64
2022/08/15 11:17:19;;;;;;;6.30;2.03;;;25.50;99.90;;;25.46;100.00;96804.31;4936030;29;20078;-65
2022/08/15 11:19:52;;;;;;;6.45;2.20;;;26.00;99.90;;;25.08;100.00;96768.84;4952202;28;20051;-65
2022/08/15 11:22:51;;;;;;;3.78;1.50;;;26.10;99.90;;;26.27;100.00;96744.25;4938798;28;20532;-65
2022/08/15 11:25:32;;;;;;;2.92;1.50;;;26.60;99.90;;;28.00;100.00;96712.34;4955508;28;20157;-65
2022/08/15 11:28:18;;;;;;;4.22;1.67;;;27.50;99.90;;;26.62;100.00;96701.09;4950649;28;20561;-65
2022/08/15 11:31:07;;;;;;;3.15;1.42;;;27.70;99.90;;;25.05;100.00;96723.06;4948278;28;20043;-65